Etusivu
METAR-TAF:

METAR-TAF

Lentoasemat :

Öljynporauslautta

Norne Fpso, Norja

Leveyspiiri: 66-01-48N, Pituuspiiri: 008-04-48E, korkeus merenpinnasta: 10 m

Tämänhetkinen sää

Tämä raportti tehtiin 27 minuuttia sitten, kello 12.50 UTC
Tuuli 18 kn lounaasta, vaihdellen etelän ja lännen/lounaan välillä
Lämpötila 4°C
Kosteus 75%
Ilmanpaine 994 hPa
Näkyvyys 10 km tai enemmän
Muutamia pilviä 2000 ft:n korkeudessa

METAR: ENNE 131250Z 22018KT 180V240 9999 FEW020 04/00 Q0994 W///S4

Aika: 14:17 (13:17 UTC)

Sääennuste

Tämä raportti tehtiin 2 tuntia ja 17 minuuttia sitten, kello 11.00 UTC
Ennuste voimassa 13. päivästä klo 12 UTC - 13. päivään klo 18 UTC
Tuuli 20 kn etelästä/lounaasta
Näkyvyys 10 km tai enemmän
Muutamia pilviä 2000 ft:n korkeudessa
Hajanaisia pilviä 3500 ft:n korkeudessa

TAF: ENNE 131100Z 1312/1318 21020KT 9999 FEW020 SCT035

Säähavainnot ja -ennusteet yli 4000 lentoasemalta (METAR- ja TAF-raportit).

Käytössä olevat sääasemat on merkitty karttaan keltaisilla ja punaisilla pisteillä.

Aseta hiiri pisteen päälle nähdäksesi sääaseman nimen.

Klikkaa sitten nähdäksesi säähavainnot ja -ennusteet.

Kartan vaihtaminen: klikkaa mustalla rastilla varustettuja vihreitä pisteitä, niin voit zoomata sisään; viivalla varustettua vihreää pistettä, niin voit zoomata ulos tai vihreitä nuolia, niin pääset viereisille kartoille.


METAR-TAF: